sensor_id;sensor_type;location;lat;lon;timestamp;temperature;humidity
56256;DHT22;57229;51.432;-2.598;2023-09-18T00:01:44;17.80;99.90
56256;DHT22;57229;51.432;-2.598;2023-09-18T00:04:10;17.80;99.90
56256;DHT22;57229;51.432;-2.598;2023-09-18T00:06:36;17.80;99.90
56256;DHT22;57229;51.432;-2.598;2023-09-18T00:09:05;17.80;99.90
56256;DHT22;57229;51.432;-2.598;2023-09-18T00:11:37;17.80;99.90
56256;DHT22;57229;51.432;-2.598;2023-09-18T00:14:04;17.80;99.90
56256;DHT22;57229;51.432;-2.598;2023-09-18T00:16:30;17.80;99.90
56256;DHT22;57229;51.432;-2.598;2023-09-18T00:19:02;17.80;99.90
56256;DHT22;57229;51.432;-2.598;2023-09-18T00:21:28;17.90;99.90
56256;DHT22;57229;51.432;-2.598;2023-09-18T00:23:57;17.80;99.90
56256;DHT22;57229;51.432;-2.598;2023-09-18T00:26:24;17.80;99.90
56256;DHT22;57229;51.432;-2.598;2023-09-18T00:28:50;17.80;99.90
56256;DHT22;57229;51.432;-2.598;2023-09-18T00:31:15;17.80;99.90
56256;DHT22;57229;51.432;-2.598;2023-09-18T00:33:41;17.80;99.90
56256;DHT22;57229;51.432;-2.598;2023-09-18T00:36:07;17.80;99.90
56256;DHT22;57229;51.432;-2.598;2023-09-18T00:38:33;17.70;99.90
56256;DHT22;57229;51.432;-2.598;2023-09-18T00:40:59;17.70;99.90
56256;DHT22;57229;51.432;-2.598;2023-09-18T00:43:24;17.60;99.90
56256;DHT22;57229;51.432;-2.598;2023-09-18T00:45:50;17.60;99.90
56256;DHT22;57229;51.432;-2.598;2023-09-18T00:48:16;17.60;99.90
56256;DHT22;57229;51.432;-2.598;2023-09-18T00:50:44;17.60;99.90
56256;DHT22;57229;51.432;-2.598;2023-09-18T00:53:14;17.60;99.90
56256;DHT22;57229;51.432;-2.598;2023-09-18T00:55:52;17.60;99.90
56256;DHT22;57229;51.432;-2.598;2023-09-18T00:58:19;17.50;99.90
56256;DHT22;57229;51.432;-2.598;2023-09-18T01:00:45;17.50;99.90
56256;DHT22;57229;51.432;-2.598;2023-09-18T01:03:11;17.50;99.90
56256;DHT22;57229;51.432;-2.598;2023-09-18T01:05:37;17.50;99.90
56256;DHT22;57229;51.432;-2.598;2023-09-18T01:08:06;17.50;99.90
56256;DHT22;57229;51.432;-2.598;2023-09-18T01:11:03;17.50;99.90
56256;DHT22;57229;51.432;-2.598;2023-09-18T01:13:31;17.40;99.90
56256;DHT22;57229;51.432;-2.598;2023-09-18T01:16:06;17.40;99.90
56256;DHT22;57229;51.432;-2.598;2023-09-18T01:18:34;17.30;99.90
56256;DHT22;57229;51.432;-2.598;2023-09-18T01:21:00;17.30;99.90
56256;DHT22;57229;51.432;-2.598;2023-09-18T01:23:28;17.20;99.90
56256;DHT22;57229;51.432;-2.598;2023-09-18T01:25:54;17.20;99.90
56256;DHT22;57229;51.432;-2.598;2023-09-18T01:28:23;17.20;99.90
56256;DHT22;57229;51.432;-2.598;2023-09-18T01:30:48;17.10;99.90
56256;DHT22;57229;51.432;-2.598;2023-09-18T01:33:21;17.20;99.90
56256;DHT22;57229;51.432;-2.598;2023-09-18T01:35:48;17.10;99.90
56256;DHT22;57229;51.432;-2.598;2023-09-18T01:38:14;17.10;99.90
56256;DHT22;57229;51.432;-2.598;2023-09-18T01:40:47;17.00;99.90
56256;DHT22;57229;51.432;-2.598;2023-09-18T01:43:12;17.00;99.90
56256;DHT22;57229;51.432;-2.598;2023-09-18T01:45:38;17.00;99.90
56256;DHT22;57229;51.432;-2.598;2023-09-18T01:48:11;16.90;99.90
56256;DHT22;57229;51.432;-2.598;2023-09-18T01:50:37;16.90;99.90
56256;DHT22;57229;51.432;-2.598;2023-09-18T01:53:14;16.80;99.90
56256;DHT22;57229;51.432;-2.598;2023-09-18T01:55:40;16.70;99.90
56256;DHT22;57229;51.432;-2.598;2023-09-18T01:58:09;16.70;99.90
56256;DHT22;57229;51.432;-2.598;2023-09-18T02:00:35;16.70;99.90
56256;DHT22;57229;51.432;-2.598;2023-09-18T02:03:00;16.70;99.90
56256;DHT22;57229;51.432;-2.598;2023-09-18T02:05:26;16.70;99.90
56256;DHT22;57229;51.432;-2.598;2023-09-18T02:07:53;16.70;99.90
56256;DHT22;57229;51.432;-2.598;2023-09-18T02:10:25;16.70;99.90
56256;DHT22;57229;51.432;-2.598;2023-09-18T02:12:54;16.70;99.90
56256;DHT22;57229;51.432;-2.598;2023-09-18T02:15:20;16.70;99.90
56256;DHT22;57229;51.432;-2.598;2023-09-18T02:17:57;16.70;99.90
56256;DHT22;57229;51.432;-2.598;2023-09-18T02:20:26;16.70;99.90
56256;DHT22;57229;51.432;-2.598;2023-09-18T02:22:58;16.70;99.90
56256;DHT22;57229;51.432;-2.598;2023-09-18T02:25:24;16.70;99.90
56256;DHT22;57229;51.432;-2.598;2023-09-18T02:27:57;16.70;99.90
56256;DHT22;57229;51.432;-2.598;2023-09-18T02:31:07;16.70;99.90
56256;DHT22;57229;51.432;-2.598;2023-09-18T02:33:57;16.70;99.90
56256;DHT22;57229;51.432;-2.598;2023-09-18T02:36:49;16.60;99.90
56256;DHT22;57229;51.432;-2.598;2023-09-18T02:39:14;16.60;99.90
56256;DHT22;57229;51.432;-2.598;2023-09-18T02:41:40;16.50;99.90
56256;DHT22;57229;51.432;-2.598;2023-09-18T02:44:06;16.50;99.90
56256;DHT22;57229;51.432;-2.598;2023-09-18T02:46:44;16.40;99.90
56256;DHT22;57229;51.432;-2.598;2023-09-18T02:49:10;16.10;99.90
56256;DHT22;57229;51.432;-2.598;2023-09-18T02:51:35;16.60;99.90
56256;DHT22;57229;51.432;-2.598;2023-09-18T02:54:02;16.90;99.90
56256;DHT22;57229;51.432;-2.598;2023-09-18T02:56:28;16.70;99.90
56256;DHT22;57229;51.432;-2.598;2023-09-18T02:59:00;16.20;99.90
56256;DHT22;57229;51.432;-2.598;2023-09-18T03:01:26;15.70;99.90
56256;DHT22;57229;51.432;-2.598;2023-09-18T03:03:54;16.20;99.90
56256;DHT22;57229;51.432;-2.598;2023-09-18T03:06:19;16.10;99.90
56256;DHT22;57229;51.432;-2.598;2023-09-18T03:08:45;16.00;99.90
56256;DHT22;57229;51.432;-2.598;2023-09-18T03:11:11;16.00;99.90
56256;DHT22;57229;51.432;-2.598;2023-09-18T03:13:43;15.90;99.90
56256;DHT22;57229;51.432;-2.598;2023-09-18T03:16:11;15.90;99.90
56256;DHT22;57229;51.432;-2.598;2023-09-18T03:18:37;15.80;99.90
56256;DHT22;57229;51.432;-2.598;2023-09-18T03:21:03;15.80;99.90
56256;DHT22;57229;51.432;-2.598;2023-09-18T03:23:53;15.80;99.90
56256;DHT22;57229;51.432;-2.598;2023-09-18T03:26:18;15.70;99.90
56256;DHT22;57229;51.432;-2.598;2023-09-18T03:28:44;15.60;99.90
56256;DHT22;57229;51.432;-2.598;2023-09-18T03:31:09;15.50;99.90
56256;DHT22;57229;51.432;-2.598;2023-09-18T03:33:35;15.50;99.90
56256;DHT22;57229;51.432;-2.598;2023-09-18T03:36:02;15.50;99.90
56256;DHT22;57229;51.432;-2.598;2023-09-18T03:38:30;15.40;99.90
56256;DHT22;57229;51.432;-2.598;2023-09-18T03:41:00;15.40;99.90
56256;DHT22;57229;51.432;-2.598;2023-09-18T03:43:26;15.40;99.90
56256;DHT22;57229;51.432;-2.598;2023-09-18T03:45:52;15.40;99.90
56256;DHT22;57229;51.432;-2.598;2023-09-18T03:48:21;15.30;99.90
56256;DHT22;57229;51.432;-2.598;2023-09-18T03:50:50;15.30;99.90
56256;DHT22;57229;51.432;-2.598;2023-09-18T03:53:16;15.30;99.90
56256;DHT22;57229;51.432;-2.598;2023-09-18T03:55:42;15.20;99.90
56256;DHT22;57229;51.432;-2.598;2023-09-18T03:58:08;15.10;99.90
56256;DHT22;57229;51.432;-2.598;2023-09-18T04:00:34;15.20;99.90
56256;DHT22;57229;51.432;-2.598;2023-09-18T04:03:00;14.90;99.90
56256;DHT22;57229;51.432;-2.598;2023-09-18T04:05:29;15.00;99.90
56256;DHT22;57229;51.432;-2.598;2023-09-18T04:07:55;15.00;99.90
56256;DHT22;57229;51.432;-2.598;2023-09-18T04:10:20;14.90;99.90
56256;DHT22;57229;51.432;-2.598;2023-09-18T04:12:49;14.90;99.90
56256;DHT22;57229;51.432;-2.598;2023-09-18T04:15:16;14.90;99.90
56256;DHT22;57229;51.432;-2.598;2023-09-18T04:17:48;14.80;99.90
56256;DHT22;57229;51.432;-2.598;2023-09-18T04:20:29;14.80;99.90
56256;DHT22;57229;51.432;-2.598;2023-09-18T04:23:32;14.90;99.90
56256;DHT22;57229;51.432;-2.598;2023-09-18T04:26:07;14.90;99.90
56256;DHT22;57229;51.432;-2.598;2023-09-18T04:28:33;14.90;99.90
56256;DHT22;57229;51.432;-2.598;2023-09-18T04:31:02;14.80;99.90
56256;DHT22;57229;51.432;-2.598;2023-09-18T04:34:00;15.00;99.90
56256;DHT22;57229;51.432;-2.598;2023-09-18T04:36:59;15.00;99.90
56256;DHT22;57229;51.432;-2.598;2023-09-18T04:39:26;15.00;99.90
56256;DHT22;57229;51.432;-2.598;2023-09-18T04:45:33;15.00;99.90
56256;DHT22;57229;51.432;-2.598;2023-09-18T04:47:59;14.90;99.90
56256;DHT22;57229;51.432;-2.598;2023-09-18T04:50:48;14.90;99.90
56256;DHT22;57229;51.432;-2.598;2023-09-18T04:53:14;14.90;99.90
56256;DHT22;57229;51.432;-2.598;2023-09-18T04:55:45;14.90;99.90
56256;DHT22;57229;51.432;-2.598;2023-09-18T04:59:00;14.80;99.90
56256;DHT22;57229;51.432;-2.598;2023-09-18T05:01:07;14.80;99.90
56256;DHT22;57229;51.432;-2.598;2023-09-18T05:03:34;14.70;99.90
56256;DHT22;57229;51.432;-2.598;2023-09-18T05:06:00;14.70;99.90
56256;DHT22;57229;51.432;-2.598;2023-09-18T05:08:31;14.60;99.90
56256;DHT22;57229;51.432;-2.598;2023-09-18T05:10:57;14.60;99.90
56256;DHT22;57229;51.432;-2.598;2023-09-18T05:13:23;14.40;99.90
56256;DHT22;57229;51.432;-2.598;2023-09-18T05:15:52;14.60;99.90
56256;DHT22;57229;51.432;-2.598;2023-09-18T05:18:20;14.50;99.90
56256;DHT22;57229;51.432;-2.598;2023-09-18T05:20:47;14.50;99.90
56256;DHT22;57229;51.432;-2.598;2023-09-18T05:23:12;14.50;99.90
56256;DHT22;57229;51.432;-2.598;2023-09-18T05:25:38;14.40;99.90
56256;DHT22;57229;51.432;-2.598;2023-09-18T05:28:07;14.40;99.90
56256;DHT22;57229;51.432;-2.598;2023-09-18T05:30:34;15.50;99.90
56256;DHT22;57229;51.432;-2.598;2023-09-18T05:33:01;14.40;99.90
56256;DHT22;57229;51.432;-2.598;2023-09-18T05:35:34;14.30;99.90
56256;DHT22;57229;51.432;-2.598;2023-09-18T05:38:02;14.30;99.90
56256;DHT22;57229;51.432;-2.598;2023-09-18T05:40:28;14.20;99.90
56256;DHT22;57229;51.432;-2.598;2023-09-18T05:42:54;14.10;99.90
56256;DHT22;57229;51.432;-2.598;2023-09-18T05:45:20;14.10;99.90
56256;DHT22;57229;51.432;-2.598;2023-09-18T05:47:47;14.10;99.90
56256;DHT22;57229;51.432;-2.598;2023-09-18T05:50:13;14.00;99.90
56256;DHT22;57229;51.432;-2.598;2023-09-18T05:52:46;14.00;99.90
56256;DHT22;57229;51.432;-2.598;2023-09-18T05:55:13;13.90;99.90
56256;DHT22;57229;51.432;-2.598;2023-09-18T05:57:39;13.90;99.90
56256;DHT22;57229;51.432;-2.598;2023-09-18T06:00:06;13.90;99.90
56256;DHT22;57229;51.432;-2.598;2023-09-18T06:02:32;13.90;99.90
56256;DHT22;57229;51.432;-2.598;2023-09-18T06:04:58;13.90;99.90
56256;DHT22;57229;51.432;-2.598;2023-09-18T06:07:29;13.90;99.90
56256;DHT22;57229;51.432;-2.598;2023-09-18T06:09:56;14.00;99.90
56256;DHT22;57229;51.432;-2.598;2023-09-18T06:12:22;13.90;99.90
56256;DHT22;57229;51.432;-2.598;2023-09-18T06:14:49;13.90;99.90
56256;DHT22;57229;51.432;-2.598;2023-09-18T06:17:15;14.00;99.90
56256;DHT22;57229;51.432;-2.598;2023-09-18T06:19:41;14.00;99.90
56256;DHT22;57229;51.432;-2.598;2023-09-18T06:22:07;13.90;99.90
56256;DHT22;57229;51.432;-2.598;2023-09-18T06:24:34;14.30;99.90
56256;DHT22;57229;51.432;-2.598;2023-09-18T06:26:59;13.90;99.90
56256;DHT22;57229;51.432;-2.598;2023-09-18T06:29:25;13.90;99.90
56256;DHT22;57229;51.432;-2.598;2023-09-18T06:31:50;13.90;99.90
56256;DHT22;57229;51.432;-2.598;2023-09-18T06:34:16;13.90;99.90
56256;DHT22;57229;51.432;-2.598;2023-09-18T06:36:42;14.00;99.90
56256;DHT22;57229;51.432;-2.598;2023-09-18T06:39:08;14.00;99.90
56256;DHT22;57229;51.432;-2.598;2023-09-18T06:41:33;14.00;99.90
56256;DHT22;57229;51.432;-2.598;2023-09-18T06:43:59;14.00;99.90
56256;DHT22;57229;51.432;-2.598;2023-09-18T06:46:28;14.10;99.90
56256;DHT22;57229;51.432;-2.598;2023-09-18T06:48:54;14.20;99.90
56256;DHT22;57229;51.432;-2.598;2023-09-18T06:51:19;14.40;99.90
56256;DHT22;57229;51.432;-2.598;2023-09-18T06:53:45;14.50;99.90
56256;DHT22;57229;51.432;-2.598;2023-09-18T06:56:10;14.70;99.90
56256;DHT22;57229;51.432;-2.598;2023-09-18T06:58:38;14.90;99.90
56256;DHT22;57229;51.432;-2.598;2023-09-18T07:01:04;15.20;99.90
56256;DHT22;57229;51.432;-2.598;2023-09-18T07:03:32;15.50;99.90
56256;DHT22;57229;51.432;-2.598;2023-09-18T07:06:00;15.80;99.90
56256;DHT22;57229;51.432;-2.598;2023-09-18T07:08:26;16.20;99.90
56256;DHT22;57229;51.432;-2.598;2023-09-18T07:10:52;16.50;99.90
56256;DHT22;57229;51.432;-2.598;2023-09-18T07:13:17;16.90;99.90
56256;DHT22;57229;51.432;-2.598;2023-09-18T07:15:43;17.30;99.90
56256;DHT22;57229;51.432;-2.598;2023-09-18T07:18:10;17.40;99.90
56256;DHT22;57229;51.432;-2.598;2023-09-18T07:20:40;17.30;99.90
56256;DHT22;57229;51.432;-2.598;2023-09-18T07:23:05;17.20;99.90
56256;DHT22;57229;51.432;-2.598;2023-09-18T07:25:31;16.90;99.90
56256;DHT22;57229;51.432;-2.598;2023-09-18T07:27:57;16.90;99.90
56256;DHT22;57229;51.432;-2.598;2023-09-18T07:30:23;16.80;99.90
56256;DHT22;57229;51.432;-2.598;2023-09-18T07:32:55;16.80;99.90
56256;DHT22;57229;51.432;-2.598;2023-09-18T07:35:26;16.80;99.90
56256;DHT22;57229;51.432;-2.598;2023-09-18T07:37:52;16.90;99.90
56256;DHT22;57229;51.432;-2.598;2023-09-18T07:40:19;17.00;99.90
56256;DHT22;57229;51.432;-2.598;2023-09-18T07:42:44;17.00;99.90
56256;DHT22;57229;51.432;-2.598;2023-09-18T07:45:11;16.90;99.90
56256;DHT22;57229;51.432;-2.598;2023-09-18T07:47:38;16.70;99.90
56256;DHT22;57229;51.432;-2.598;2023-09-18T07:50:04;16.80;99.90
56256;DHT22;57229;51.432;-2.598;2023-09-18T07:52:29;16.80;99.90
56256;DHT22;57229;51.432;-2.598;2023-09-18T07:54:57;16.80;99.90
56256;DHT22;57229;51.432;-2.598;2023-09-18T07:57:23;16.80;99.90
56256;DHT22;57229;51.432;-2.598;2023-09-18T07:59:49;16.70;99.90
56256;DHT22;57229;51.432;-2.598;2023-09-18T08:02:15;16.60;99.90
56256;DHT22;57229;51.432;-2.598;2023-09-18T08:04:43;16.50;99.90
56256;DHT22;57229;51.432;-2.598;2023-09-18T08:07:09;16.40;99.90
56256;DHT22;57229;51.432;-2.598;2023-09-18T08:09:34;16.40;99.90
56256;DHT22;57229;51.432;-2.598;2023-09-18T08:12:04;16.30;99.90
56256;DHT22;57229;51.432;-2.598;2023-09-18T08:14:30;16.30;99.90
56256;DHT22;57229;51.432;-2.598;2023-09-18T08:16:59;16.40;99.90
56256;DHT22;57229;51.432;-2.598;2023-09-18T08:19:25;16.40;99.90
56256;DHT22;57229;51.432;-2.598;2023-09-18T08:21:53;16.40;99.90
56256;DHT22;57229;51.432;-2.598;2023-09-18T08:24:20;16.40;99.90
56256;DHT22;57229;51.432;-2.598;2023-09-18T08:26:46;16.50;99.90
56256;DHT22;57229;51.432;-2.598;2023-09-18T08:29:12;16.50;99.90
56256;DHT22;57229;51.432;-2.598;2023-09-18T08:31:37;16.50;99.90
56256;DHT22;57229;51.432;-2.598;2023-09-18T08:34:03;16.50;99.90
56256;DHT22;57229;51.432;-2.598;2023-09-18T08:36:28;16.60;99.90
56256;DHT22;57229;51.432;-2.598;2023-09-18T08:38:56;16.50;99.90
56256;DHT22;57229;51.432;-2.598;2023-09-18T08:41:23;16.60;99.90
56256;DHT22;57229;51.432;-2.598;2023-09-18T08:43:52;16.60;99.90
56256;DHT22;57229;51.432;-2.598;2023-09-18T08:46:20;16.60;99.90
56256;DHT22;57229;51.432;-2.598;2023-09-18T08:48:46;16.60;99.90
56256;DHT22;57229;51.432;-2.598;2023-09-18T08:51:13;16.60;99.90
56256;DHT22;57229;51.432;-2.598;2023-09-18T08:53:39;16.60;99.90
56256;DHT22;57229;51.432;-2.598;2023-09-18T08:56:06;16.60;99.90
56256;DHT22;57229;51.432;-2.598;2023-09-18T08:58:37;16.70;99.90
56256;DHT22;57229;51.432;-2.598;2023-09-18T09:01:05;16.80;99.90
56256;DHT22;57229;51.432;-2.598;2023-09-18T09:03:36;16.90;99.90
56256;DHT22;57229;51.432;-2.598;2023-09-18T09:06:02;17.00;99.90
56256;DHT22;57229;51.432;-2.598;2023-09-18T09:08:29;17.10;99.90
56256;DHT22;57229;51.432;-2.598;2023-09-18T09:10:55;17.20;99.90
56256;DHT22;57229;51.432;-2.598;2023-09-18T09:13:24;17.40;99.90
56256;DHT22;57229;51.432;-2.598;2023-09-18T09:15:59;17.80;99.90
56256;DHT22;57229;51.432;-2.598;2023-09-18T09:18:27;18.20;99.90
56256;DHT22;57229;51.432;-2.598;2023-09-18T09:23:19;18.50;99.90
56256;DHT22;57229;51.432;-2.598;2023-09-18T09:25:45;18.30;99.90
56256;DHT22;57229;51.432;-2.598;2023-09-18T09:28:10;17.90;99.90
56256;DHT22;57229;51.432;-2.598;2023-09-18T09:30:37;17.80;99.90
56256;DHT22;57229;51.432;-2.598;2023-09-18T09:33:04;17.60;99.90
56256;DHT22;57229;51.432;-2.598;2023-09-18T09:35:33;17.60;99.90
56256;DHT22;57229;51.432;-2.598;2023-09-18T09:38:01;17.50;99.90
56256;DHT22;57229;51.432;-2.598;2023-09-18T09:40:32;17.60;99.90
56256;DHT22;57229;51.432;-2.598;2023-09-18T09:42:58;17.70;99.90
56256;DHT22;57229;51.432;-2.598;2023-09-18T09:45:28;17.90;99.90
56256;DHT22;57229;51.432;-2.598;2023-09-18T09:47:57;18.00;99.90
56256;DHT22;57229;51.432;-2.598;2023-09-18T09:50:23;17.90;99.90
56256;DHT22;57229;51.432;-2.598;2023-09-18T09:52:51;17.80;99.90
56256;DHT22;57229;51.432;-2.598;2023-09-18T09:55:23;17.60;99.90
56256;DHT22;57229;51.432;-2.598;2023-09-18T09:57:59;17.40;99.90
56256;DHT22;57229;51.432;-2.598;2023-09-18T10:00:41;17.20;99.90
56256;DHT22;57229;51.432;-2.598;2023-09-18T10:03:10;17.10;99.90
56256;DHT22;57229;51.432;-2.598;2023-09-18T10:05:38;17.00;99.90
56256;DHT22;57229;51.432;-2.598;2023-09-18T10:08:18;17.00;99.90
56256;DHT22;57229;51.432;-2.598;2023-09-18T10:10:52;17.10;99.90
56256;DHT22;57229;51.432;-2.598;2023-09-18T10:13:32;17.40;99.90
56256;DHT22;57229;51.432;-2.598;2023-09-18T10:15:59;17.60;99.90
56256;DHT22;57229;51.432;-2.598;2023-09-18T10:19:14;17.80;99.90
56256;DHT22;57229;51.432;-2.598;2023-09-18T10:24:04;17.70;99.90
56256;DHT22;57229;51.432;-2.598;2023-09-18T10:26:35;17.60;99.90
56256;DHT22;57229;51.432;-2.598;2023-09-18T10:29:05;17.50;99.90
56256;DHT22;57229;51.432;-2.598;2023-09-18T10:31:34;17.50;99.90
56256;DHT22;57229;51.432;-2.598;2023-09-18T10:34:03;17.80;99.90
56256;DHT22;57229;51.432;-2.598;2023-09-18T10:36:30;18.00;99.90
56256;DHT22;57229;51.432;-2.598;2023-09-18T10:38:56;18.00;99.90
56256;DHT22;57229;51.432;-2.598;2023-09-18T10:41:26;18.10;99.90
56256;DHT22;57229;51.432;-2.598;2023-09-18T10:43:56;18.00;99.90
56256;DHT22;57229;51.432;-2.598;2023-09-18T10:46:25;17.90;99.90
56256;DHT22;57229;51.432;-2.598;2023-09-18T10:48:51;17.80;99.90
56256;DHT22;57229;51.432;-2.598;2023-09-18T10:51:22;17.90;99.90
56256;DHT22;57229;51.432;-2.598;2023-09-18T10:53:49;17.80;99.90
56256;DHT22;57229;51.432;-2.598;2023-09-18T10:56:15;17.90;99.90
56256;DHT22;57229;51.432;-2.598;2023-09-18T10:58:44;17.80;99.90
56256;DHT22;57229;51.432;-2.598;2023-09-18T11:01:12;16.20;99.90
56256;DHT22;57229;51.432;-2.598;2023-09-18T11:03:38;17.80;99.90
56256;DHT22;57229;51.432;-2.598;2023-09-18T11:06:10;17.80;99.90
56256;DHT22;57229;51.432;-2.598;2023-09-18T11:08:49;18.00;99.90
56256;DHT22;57229;51.432;-2.598;2023-09-18T11:11:18;18.20;99.90
56256;DHT22;57229;51.432;-2.598;2023-09-18T11:13:47;18.10;99.90
56256;DHT22;57229;51.432;-2.598;2023-09-18T11:16:18;18.00;99.90
56256;DHT22;57229;51.432;-2.598;2023-09-18T11:18:50;17.90;99.90
56256;DHT22;57229;51.432;-2.598;2023-09-18T11:21:18;17.90;99.90
56256;DHT22;57229;51.432;-2.598;2023-09-18T11:24:01;17.90;99.90
56256;DHT22;57229;51.432;-2.598;2023-09-18T11:26:35;17.80;99.90
56256;DHT22;57229;51.432;-2.598;2023-09-18T11:29:07;17.90;99.90
56256;DHT22;57229;51.432;-2.598;2023-09-18T11:31:52;18.20;99.90
56256;DHT22;57229;51.432;-2.598;2023-09-18T11:34:27;19.00;99.90
56256;DHT22;57229;51.432;-2.598;2023-09-18T11:36:54;19.70;99.90
56256;DHT22;57229;51.432;-2.598;2023-09-18T11:39:40;19.90;99.90
56256;DHT22;57229;51.432;-2.598;2023-09-18T11:45:06;21.50;97.40
56256;DHT22;57229;51.432;-2.598;2023-09-18T11:47:36;21.90;95.90
56256;DHT22;57229;51.432;-2.598;2023-09-18T11:50:10;22.20;95.60
56256;DHT22;57229;51.432;-2.598;2023-09-18T11:52:37;23.20;93.80
56256;DHT22;57229;51.432;-2.598;2023-09-18T11:55:03;24.50;92.10
56256;DHT22;57229;51.432;-2.598;2023-09-18T11:57:29;24.30;91.00
56256;DHT22;57229;51.432;-2.598;2023-09-18T12:00:01;24.80;89.30
56256;DHT22;57229;51.432;-2.598;2023-09-18T12:02:37;25.00;87.20
56256;DHT22;57229;51.432;-2.598;2023-09-18T12:05:17;25.40;84.30
56256;DHT22;57229;51.432;-2.598;2023-09-18T12:07:44;24.10;85.60
56256;DHT22;57229;51.432;-2.598;2023-09-18T12:10:17;23.20;88.10
56256;DHT22;57229;51.432;-2.598;2023-09-18T12:12:44;22.20;90.20
56256;DHT22;57229;51.432;-2.598;2023-09-18T12:15:14;21.50;91.10
56256;DHT22;57229;51.432;-2.598;2023-09-18T12:17:40;20.80;92.10
56256;DHT22;57229;51.432;-2.598;2023-09-18T12:20:07;20.40;93.30
56256;DHT22;57229;51.432;-2.598;2023-09-18T12:22:39;20.10;94.30
56256;DHT22;57229;51.432;-2.598;2023-09-18T12:25:23;20.10;94.90
56256;DHT22;57229;51.432;-2.598;2023-09-18T12:27:55;19.80;95.10
56256;DHT22;57229;51.432;-2.598;2023-09-18T12:30:22;19.80;95.80
56256;DHT22;57229;51.432;-2.598;2023-09-18T12:32:49;19.90;96.20
56256;DHT22;57229;51.432;-2.598;2023-09-18T12:35:14;20.60;95.50
56256;DHT22;57229;51.432;-2.598;2023-09-18T12:37:41;20.90;94.00
56256;DHT22;57229;51.432;-2.598;2023-09-18T12:40:21;20.20;95.30
56256;DHT22;57229;51.432;-2.598;2023-09-18T12:42:47;20.40;96.00
56256;DHT22;57229;51.432;-2.598;2023-09-18T12:45:13;20.80;95.40
56256;DHT22;57229;51.432;-2.598;2023-09-18T12:47:39;20.30;96.00
56256;DHT22;57229;51.432;-2.598;2023-09-18T12:50:06;19.70;97.10
56256;DHT22;57229;51.432;-2.598;2023-09-18T12:52:47;19.70;97.80
56256;DHT22;57229;51.432;-2.598;2023-09-18T12:55:26;21.70;95.60
56256;DHT22;57229;51.432;-2.598;2023-09-18T12:57:53;22.20;94.00
56256;DHT22;57229;51.432;-2.598;2023-09-18T13:00:20;21.40;95.20
56256;DHT22;57229;51.432;-2.598;2023-09-18T13:02:48;21.30;95.40
56256;DHT22;57229;51.432;-2.598;2023-09-18T13:05:19;20.70;95.90
56256;DHT22;57229;51.432;-2.598;2023-09-18T13:07:45;20.60;96.10
56256;DHT22;57229;51.432;-2.598;2023-09-18T13:10:11;20.40;96.50
56256;DHT22;57229;51.432;-2.598;2023-09-18T13:12:51;20.10;97.00
56256;DHT22;57229;51.432;-2.598;2023-09-18T13:15:33;20.30;96.70
56256;DHT22;57229;51.432;-2.598;2023-09-18T13:18:01;20.30;94.10
56256;DHT22;57229;51.432;-2.598;2023-09-18T13:20:29;19.70;94.90
56256;DHT22;57229;51.432;-2.598;2023-09-18T13:22:57;19.10;94.50
56256;DHT22;57229;51.432;-2.598;2023-09-18T13:25:31;18.90;95.30
56256;DHT22;57229;51.432;-2.598;2023-09-18T13:28:00;19.00;95.70
56256;DHT22;57229;51.432;-2.598;2023-09-18T13:30:26;19.30;95.50
56256;DHT22;57229;51.432;-2.598;2023-09-18T13:33:01;20.40;94.40
56256;DHT22;57229;51.432;-2.598;2023-09-18T13:35:28;20.30;93.80
56256;DHT22;57229;51.432;-2.598;2023-09-18T13:37:54;19.90;94.30
56256;DHT22;57229;51.432;-2.598;2023-09-18T13:40:19;19.50;94.40
56256;DHT22;57229;51.432;-2.598;2023-09-18T13:42:45;19.10;95.30
56256;DHT22;57229;51.432;-2.598;2023-09-18T13:45:10;18.90;95.90
56256;DHT22;57229;51.432;-2.598;2023-09-18T13:47:37;19.10;95.70
56256;DHT22;57229;51.432;-2.598;2023-09-18T13:50:04;20.50;94.30
56256;DHT22;57229;51.432;-2.598;2023-09-18T13:52:32;22.30;92.00
56256;DHT22;57229;51.432;-2.598;2023-09-18T13:54:58;23.60;90.20
56256;DHT22;57229;51.432;-2.598;2023-09-18T13:57:24;23.20;89.10
56256;DHT22;57229;51.432;-2.598;2023-09-18T13:59:50;22.10;90.20
56256;DHT22;57229;51.432;-2.598;2023-09-18T14:02:19;20.60;92.30
56256;DHT22;57229;51.432;-2.598;2023-09-18T14:04:45;20.80;92.20
56256;DHT22;57229;51.432;-2.598;2023-09-18T14:07:11;22.20;90.40
56256;DHT22;57229;51.432;-2.598;2023-09-18T14:09:38;22.10;89.40
56256;DHT22;57229;51.432;-2.598;2023-09-18T14:12:04;20.90;91.00
56256;DHT22;57229;51.432;-2.598;2023-09-18T14:14:33;21.30;90.40
56256;DHT22;57229;51.432;-2.598;2023-09-18T14:17:00;22.30;88.40
56256;DHT22;57229;51.432;-2.598;2023-09-18T14:19:26;23.40;85.40
56256;DHT22;57229;51.432;-2.598;2023-09-18T14:21:52;24.30;81.00
56256;DHT22;57229;51.432;-2.598;2023-09-18T14:24:17;24.20;78.30
56256;DHT22;57229;51.432;-2.598;2023-09-18T14:26:58;24.30;77.10
56256;DHT22;57229;51.432;-2.598;2023-09-18T14:29:25;24.00;78.00
56256;DHT22;57229;51.432;-2.598;2023-09-18T14:31:52;24.00;79.10
56256;DHT22;57229;51.432;-2.598;2023-09-18T14:34:21;23.80;78.30
56256;DHT22;57229;51.432;-2.598;2023-09-18T14:36:47;25.10;80.30
56256;DHT22;57229;51.432;-2.598;2023-09-18T14:39:13;24.60;81.30
56256;DHT22;57229;51.432;-2.598;2023-09-18T14:41:39;22.70;78.60
56256;DHT22;57229;51.432;-2.598;2023-09-18T14:44:06;22.70;79.80
56256;DHT22;57229;51.432;-2.598;2023-09-18T14:46:35;24.00;80.60
56256;DHT22;57229;51.432;-2.598;2023-09-18T14:49:05;22.80;79.00
56256;DHT22;57229;51.432;-2.598;2023-09-18T14:51:34;22.60;80.20
56256;DHT22;57229;51.432;-2.598;2023-09-18T14:54:02;22.50;81.40
56256;DHT22;57229;51.432;-2.598;2023-09-18T14:56:29;22.60;81.80
56256;DHT22;57229;51.432;-2.598;2023-09-18T14:58:55;22.80;80.50
56256;DHT22;57229;51.432;-2.598;2023-09-18T15:01:24;22.90;80.30
56256;DHT22;57229;51.432;-2.598;2023-09-18T15:03:50;23.20;80.20
56256;DHT22;57229;51.432;-2.598;2023-09-18T15:06:16;23.10;79.50
56256;DHT22;57229;51.432;-2.598;2023-09-18T15:08:45;23.20;76.90
56256;DHT22;57229;51.432;-2.598;2023-09-18T15:11:14;23.10;76.30
56256;DHT22;57229;51.432;-2.598;2023-09-18T15:13:43;22.30;77.60
56256;DHT22;57229;51.432;-2.598;2023-09-18T15:16:15;22.30;78.90
56256;DHT22;57229;51.432;-2.598;2023-09-18T15:18:41;23.10;78.20
56256;DHT22;57229;51.432;-2.598;2023-09-18T15:21:12;23.40;78.20
56256;DHT22;57229;51.432;-2.598;2023-09-18T15:23:40;22.90;79.70
56256;DHT22;57229;51.432;-2.598;2023-09-18T15:26:06;21.60;81.20
56256;DHT22;57229;51.432;-2.598;2023-09-18T15:28:32;21.30;83.20
56256;DHT22;57229;51.432;-2.598;2023-09-18T15:30:59;21.90;82.70
56256;DHT22;57229;51.432;-2.598;2023-09-18T15:33:34;22.30;82.10
56256;DHT22;57229;51.432;-2.598;2023-09-18T15:36:00;22.80;80.50
56256;DHT22;57229;51.432;-2.598;2023-09-18T15:38:25;22.60;80.70